^^
Station Historical Data
Daily Summary for August 23, 2017 Units:  Metric    English   Both
« Previous Day
Next Day »
Daily Weekly Monthly Yearly Custom
  High: Low: Average:
Temperature: 23.1 °C 9.4 °C 15.9 °C
Dew Point: 0.2 °C -3.9 °C -1.8 °C
Humidity: 42% 19% 31%
Wind Speed: 22.7km/h 0km/h 3.2km/h
Wind Gust: 30.6km/h - -
Wind- - East
Pressure: 1021.2 hPa 1015.5 hPa -
Precipitation: 0 mm    
Historical Graphs
 
 
Tabular Data for August 23, 2017
Time Temperature Dew Point Pressure Wind Wind Speed Wind Gust Humidity Rainfall Rate (Hourly) solar Conditions
09:40 13.7 °C -1.9 °C 1021.2 hPa NE 11.1 km/h 17.7 km/h 34% 0 mm 582.0 W/m2
09:48 14 °C -1.6 °C 1021.2 hPa Calm   16.1 km/h 34% 0 mm 601.0 W/m2
09:53 14.1 °C -1.9 °C 1021.2 hPa NNE 13 km/h 24.1 km/h 33% 0 mm 613.0 W/m2
09:56 14.3 °C -1.8 °C 1021.2 hPa NNE 6.4 km/h 22.5 km/h 33% 0 mm 619.0 W/m2
10:08 14.6 °C -1.5 °C 1020.9 hPa NNE 13 km/h 17.7 km/h 33% 0 mm 636.0 W/m2
10:16 14.9 °C -1.2 °C 1020.9 hPa NNE 11.1 km/h 22.5 km/h 33% 0 mm 659.0 W/m2
11:01 16.8 °C -1.3 °C 1020.2 hPa NNE 3.2 km/h 19.3 km/h 29% 0 mm 708.0 W/m2
11:16 16.8 °C -0.9 °C 1019.9 hPa NNE 19.5 km/h 30.6 km/h 30% 0 mm 721.0 W/m2
11:31 17.5 °C -0.7 °C 1019.5 hPa NNE 7.9 km/h 19.3 km/h 29% 0 mm 729.0 W/m2
11:36 17.4 °C -0.8 °C 1019.5 hPa NNE 11.1 km/h 22.5 km/h 29% 0 mm 728.0 W/m2
11:41 17.7 °C -0.6 °C 1019.2 hPa North 3.2 km/h 27.4 km/h 29% 0 mm 731.0 W/m2
11:48 17.7 °C -0.1 °C 1019.2 hPa North 22.7 km/h 29 km/h 30% 0 mm 731.0 W/m2
11:58 18.1 °C 0.2 °C 1018.8 hPa Calm   12.9 km/h 30% 0 mm 731.0 W/m2
12:03 18.4 °C 0 °C 1018.8 hPa North 7.9 km/h 20.9 km/h 29% 0 mm 729.0 W/m2
12:08 18.8 °C -0.1 °C 1018.8 hPa North 13 km/h 19.3 km/h 28% 0 mm 729.0 W/m2
12:17 18.5 °C 0.1 °C 1018.5 hPa North 3.2 km/h 22.5 km/h 29% 0 mm 722.0 W/m2
13:35 20.4 °C -0.3 °C 1016.8 hPa Calm   20.9 km/h 25% 0 mm 638.0 W/m2
13:41 20.6 °C -0.1 °C 1016.8 hPa Calm   3.2 km/h 25% 0 mm 629.0 W/m2
13:52 20.9 °C -0.4 °C 1016.5 hPa North 13 km/h 17.7 km/h 24% 0 mm 608.0 W/m2
13:58 21.1 °C -0.3 °C 1016.5 hPa Calm   17.7 km/h 24% 0 mm 587.0 W/m2
14:05 21.1 °C -0.3 °C 1016.5 hPa Calm   17.7 km/h 24% 0 mm 587.0 W/m2
14:20 21.2 °C -0.8 °C 1016.1 hPa North 17.7 km/h 17.7 km/h 23% 0 mm 557.0 W/m2
14:34 21.6 °C -1 °C 1016.1 hPa North 7.9 km/h 12.9 km/h 22% 0 mm 519.0 W/m2
14:44 21.6 °C -1 °C 1016.1 hPa Calm     22% 0 mm 480.0 W/m2
14:59 21.9 °C -0.8 °C 1016.1 hPa North 1.4 km/h 1.6 km/h 22% 0 mm 436.0 W/m2
15:19 22.2 °C -0.5 °C 1015.8 hPa Calm     22% 0 mm 390.0 W/m2
15:25 22.3 °C -1.1 °C 1015.5 hPa Calm   1.6 km/h 21% 0 mm 360.0 W/m2
15:41 22.6 °C -0.8 °C 1015.8 hPa Calm     21% 0 mm 329.0 W/m2
15:56 22.6 °C -0.8 °C 1015.5 hPa Calm     21% 0 mm 278.0 W/m2
16:11 22.5 °C -0.9 °C 1015.5 hPa Calm     21% 0 mm 227.0 W/m2
16:23 22.7 °C -1.4 °C 1015.8 hPa Calm     20% 0 mm 188.0 W/m2
16:32 23.1 °C -1.8 °C 1015.5 hPa Calm     19% 0 mm 127.0 W/m2
16:45 22.6 °C -1.5 °C 1015.8 hPa Calm     20% 0 mm 90.0 W/m2
16:54 21.9 °C -1.4 °C 1015.5 hPa Calm     21% 0 mm 62.0 W/m2
17:04 21.6 °C -1.7 °C 1015.5 hPa Calm     21% 0 mm 33.0 W/m2
21:51 12.6 °C -3.7 °C 1017.2 hPa Calm     32% 0 mm 0.0 W/m2
21:59 12.2 °C -3.6 °C 1017.2 hPa Calm     33% 0 mm 0.0 W/m2
22:14 11.9 °C -3.9 °C 1017.5 hPa Calm     33% 0 mm 0.0 W/m2
22:20 11.4 °C -3.5 °C 1017.5 hPa Calm     35% 0 mm 0.0 W/m2
22:25 11.3 °C -3.6 °C 1017.5 hPa Calm     35% 0 mm 0.0 W/m2
22:30 11.2 °C -3.3 °C 1017.5 hPa Calm     36% 0 mm 0.0 W/m2
22:35 11 °C -3.1 °C 1017.5 hPa Calm     37% 0 mm 0.0 W/m2
22:40 10.9 °C -3.2 °C 1017.5 hPa Calm     37% 0 mm 0.0 W/m2
22:45 10.8 °C -3 °C 1017.5 hPa Calm     38% 0 mm 0.0 W/m2
22:50 10.9 °C -2.9 °C 1017.5 hPa Calm     38% 0 mm 0.0 W/m2
22:55 10.9 °C -3.6 °C 1017.5 hPa Calm     36% 0 mm 0.0 W/m2
23:01 10.8 °C -3.3 °C 1017.5 hPa Calm     37% 0 mm 0.0 W/m2
23:06 10.7 °C -3 °C 1017.5 hPa Calm     38% 0 mm 0.0 W/m2
23:11 10.6 °C -2.4 °C 1017.5 hPa Calm     40% 0 mm 0.0 W/m2
23:16 10.5 °C -2.9 °C 1017.5 hPa Calm     39% 0 mm 0.0 W/m2
23:21 10.4 °C -3 °C 1017.2 hPa Calm     39% 0 mm 0.0 W/m2
23:26 10.2 °C -3.1 °C 1017.2 hPa Calm     39% 0 mm 0.0 W/m2
23:31 10 °C -2.7 °C 1017.2 hPa Calm     41% 0 mm 0.0 W/m2
23:36 9.8 °C -2.5 °C 1017.2 hPa Calm     42% 0 mm 0.0 W/m2
23:42 9.8 °C -2.8 °C 1017.2 hPa Calm     41% 0 mm 0.0 W/m2
23:47 9.8 °C -2.8 °C 1017.2 hPa Calm     41% 0 mm 0.0 W/m2
23:52 9.6 °C -3 °C 1017.2 hPa Calm     41% 0 mm 0.0 W/m2
23:57 9.4 °C -2.9 °C 1017.2 hPa Calm     42% 0 mm 0.0 W/m2
Canyon Roadhouse, Fishriver Canyon, Namibia
Compliments of Weather Underground - 2 mb